Time;durP1;ratioP1;P1;durP2;ratioP2;P2;SDS_P1;SDS_P2;PMS_P1;PMS_P2;Temp;Humidity;BMP_temperature;BMP_pressure;BME280_temperature;BME280_humidity;BME280_pressure;Samples;Min_cycle;Max_cycle;Signal;HPM_P1;HPM_P2
2022/01/04 00:00:35;;;;;;;6.13;1.70;;;;;;;19.34;57.60;99356.28;5050975;28;20223;-62
2022/01/04 00:03:00;;;;;;;4.33;1.50;;;;;;;19.35;57.88;99349.31;5052521;28;20464;-62
2022/01/04 00:05:26;;;;;;;7.07;2.00;;;;;;;19.34;57.83;99350.56;5055108;28;20187;-62
2022/01/04 00:07:51;;;;;;;5.23;1.83;;;;;;;19.33;57.58;99341.16;5052024;28;20187;-62
2022/01/04 00:10:21;;;;;;;6.73;1.80;;;;;;;19.33;57.43;99340.34;5052500;28;20657;-62
2022/01/04 00:15:31;;;;;;;9.70;2.23;;;;;;;19.34;57.51;99325.63;5051791;28;21000;-62
2022/01/04 00:17:56;;;;;;;5.13;2.00;;;;;;;19.31;57.80;99312.13;5058944;28;20421;-62
2022/01/04 00:20:22;;;;;;;3.60;1.93;;;;;;;19.33;57.83;99308.84;5078896;28;20238;-62
2022/01/04 00:22:48;;;;;;;8.13;1.87;;;;;;;19.32;57.59;99308.03;5072411;28;20680;-62
2022/01/04 00:25:15;;;;;;;6.20;2.20;;;;;;;19.33;57.30;99303.13;5071963;28;20182;-62
2022/01/04 00:27:40;;;;;;;4.70;2.20;;;;;;;19.30;57.92;99296.19;5072147;28;20417;-62
2022/01/04 00:30:07;;;;;;;8.50;1.97;;;;;;;19.32;57.40;99290.84;5071992;28;20935;-62
2022/01/04 00:32:32;;;;;;;8.10;1.83;;;;;;;19.32;57.40;99290.84;5072362;28;20701;-62
2022/01/04 00:34:57;;;;;;;6.87;2.07;;;;;;;19.32;57.64;99284.34;5071253;28;20409;-62
2022/01/04 00:37:23;;;;;;;5.53;1.50;;;;;;;19.31;57.35;99274.13;5071956;28;20167;-62
2022/01/04 00:39:48;;;;;;;5.30;1.77;;;;;;;19.31;57.56;99272.06;5071151;28;20175;-62
2022/01/04 00:42:14;;;;;;;6.30;1.83;;;;;;;19.32;57.69;99261.44;5068571;28;20172;-62
2022/01/04 00:44:39;;;;;;;4.50;1.80;;;;;;;19.31;57.71;99260.59;5060109;28;20642;-62
2022/01/04 00:47:08;;;;;;;3.57;1.70;;;;;;;19.32;57.74;99238.53;5071041;28;20171;-62
2022/01/04 00:49:33;;;;;;;6.43;1.63;;;;;;;19.27;57.66;99241.81;5071551;28;20209;-62
2022/01/04 00:52:01;;;;;;;5.63;2.10;;;;;;;19.26;57.68;99229.53;5071974;28;20456;-62
2022/01/04 00:54:26;;;;;;;10.30;2.30;;;;;;;19.28;57.78;99232.81;5069980;28;20171;-62
2022/01/04 00:56:51;;;;;;;4.90;1.80;;;;;;;19.28;57.55;99229.13;5071481;28;20417;-62
2022/01/04 00:59:17;;;;;;;6.50;1.67;;;;;;;19.30;57.48;99213.19;5071781;28;20565;-62
2022/01/04 01:01:42;;;;;;;4.80;1.37;;;;;;;19.29;57.62;99213.59;5071918;28;20174;-62
2022/01/04 01:04:09;;;;;;;5.00;1.50;;;;;;;19.28;57.57;99209.94;5053669;28;20189;-62
2022/01/04 01:06:35;;;;;;;8.13;1.73;;;;;;;19.25;57.62;99205.03;5071284;28;20193;-62
2022/01/04 01:09:01;;;;;;;3.20;1.30;;;;;;;19.25;57.82;99195.63;5071110;28;20481;-62
2022/01/04 01:11:26;;;;;;;6.13;1.90;;;;;;;19.25;57.69;99189.88;5070687;28;20194;-62
2022/01/04 01:13:53;;;;;;;5.40;1.80;;;;;;;19.24;57.73;99191.94;5070339;28;20517;-62
2022/01/04 01:16:18;;;;;;;5.03;1.50;;;;;;;19.27;57.55;99167.41;5070207;28;20249;-62
2022/01/04 01:18:44;;;;;;;3.60;1.33;;;;;;;19.25;57.40;99161.28;5070433;28;20421;-62
2022/01/04 01:21:14;;;;;;;6.30;1.80;;;;;;;19.23;57.45;99158.84;5071710;28;20337;-62
2022/01/04 01:23:40;;;;;;;5.60;2.07;;;;;;;19.24;57.84;99157.63;5070318;28;20166;-62
2022/01/04 01:26:06;;;;;;;5.23;1.93;;;;;;;19.25;57.68;99146.97;5070318;28;20425;-62
2022/01/04 01:28:33;;;;;;;6.73;2.03;;;;;;;19.25;57.63;99141.25;5076852;28;20727;-62
2022/01/04 01:30:59;;;;;;;3.40;1.40;;;;;;;19.25;57.71;99144.94;5090711;28;20475;-62
2022/01/04 01:33:27;;;;;;;4.30;1.77;;;;;;;19.24;57.83;99136.75;5069318;28;20979;-62
2022/01/04 01:35:52;;;;;;;7.00;1.60;;;;;;;19.20;57.66;99116.72;5071132;28;20265;-62
2022/01/04 01:38:19;;;;;;;5.47;2.10;;;;;;;19.22;57.96;99117.13;5070768;28;20833;-62
2022/01/04 01:40:45;;;;;;;3.43;1.37;;;;;;;19.24;57.46;99111.84;5070905;28;20587;-62
2022/01/04 01:43:10;;;;;;;3.83;1.63;;;;;;;19.21;57.85;99106.09;5071176;28;20762;-62
2022/01/04 01:45:36;;;;;;;9.13;1.63;;;;;;;19.22;57.73;99102.84;5070621;28;20178;-62
2022/01/04 01:48:01;;;;;;;6.03;1.87;;;;;;;19.19;57.63;99088.50;5062619;28;20605;-62
2022/01/04 01:50:27;;;;;;;2.83;1.43;;;;;;;19.23;57.84;99084.44;5050803;28;20176;-62
2022/01/04 01:52:53;;;;;;;6.57;1.87;;;;;;;19.21;57.64;99066.84;5050755;28;20191;-62
2022/01/04 01:55:19;;;;;;;3.93;1.60;;;;;;;19.21;57.78;99052.53;5061282;28;20527;-62
2022/01/04 01:57:44;;;;;;;4.97;1.50;;;;;;;19.18;58.20;99052.56;5070467;28;20163;-62
2022/01/04 02:00:14;;;;;;;4.50;1.30;;;;;;;19.19;58.07;99034.97;5070057;28;20461;-62
2022/01/04 02:02:40;;;;;;;4.40;1.50;;;;;;;19.18;57.68;99036.22;5070253;28;20493;-62
2022/01/04 02:05:06;;;;;;;3.80;1.47;;;;;;;19.20;57.49;99036.59;5070118;28;20785;-62
2022/01/04 02:07:31;;;;;;;3.90;1.53;;;;;;;19.19;57.64;99040.69;5070924;28;20212;-62
2022/01/04 02:10:04;;;;;;;3.80;1.40;;;;;;;19.18;57.68;99039.06;5070209;28;20236;-62
2022/01/04 02:12:37;;;;;;;3.77;1.70;;;;;;;19.19;57.75;99025.56;5070145;28;20195;-62
2022/01/04 02:15:04;;;;;;;4.87;1.20;;;;;;;19.18;57.76;99021.09;5070888;28;20502;-62
2022/01/04 02:17:29;;;;;;;4.87;1.57;;;;;;;19.18;57.75;99006.78;5069630;28;20771;-62
2022/01/04 02:19:56;;;;;;;4.43;1.50;;;;;;;19.20;57.68;99001.44;5066819;28;20425;-62
2022/01/04 02:22:21;;;;;;;4.03;1.40;;;;;;;19.15;57.80;99011.28;5069989;28;20250;-62
2022/01/04 02:24:47;;;;;;;4.67;2.00;;;;;;;19.16;58.00;99000.66;5068611;28;20417;-62
2022/01/04 02:27:13;;;;;;;4.53;1.50;;;;;;;19.14;57.92;99006.81;5069897;28;20205;-62
2022/01/04 02:29:39;;;;;;;4.73;1.33;;;;;;;19.14;57.88;99000.25;5070133;28;20206;-62
2022/01/04 02:32:05;;;;;;;5.10;1.20;;;;;;;19.14;57.83;98998.22;5070156;28;20496;-62
2022/01/04 02:34:31;;;;;;;6.23;1.23;;;;;;;19.16;57.81;99001.47;5069568;28;20179;-62
2022/01/04 02:36:57;;;;;;;4.70;1.90;;;;;;;19.15;57.78;98994.13;5068870;28;20274;-62
2022/01/04 02:39:22;;;;;;;4.17;1.73;;;;;;;19.14;57.79;99003.94;5051670;28;20475;-62
2022/01/04 02:41:48;;;;;;;2.97;1.53;;;;;;;19.13;57.79;98990.03;5069506;28;20425;-62
2022/01/04 02:44:13;;;;;;;3.63;1.50;;;;;;;19.12;57.95;98986.34;5066497;28;20179;-62
2022/01/04 02:46:39;;;;;;;3.57;1.60;;;;;;;19.12;57.91;98986.34;5069752;28;20171;-62
2022/01/04 02:49:04;;;;;;;5.10;1.53;;;;;;;19.13;57.65;98985.16;5069496;28;20225;-62
2022/01/04 02:51:29;;;;;;;4.17;2.00;;;;;;;19.11;58.09;98981.88;5066766;28;20203;-62
2022/01/04 02:53:55;;;;;;;3.60;1.57;;;;;;;19.14;57.88;98977.38;5068999;28;20171;-62
2022/01/04 02:56:20;;;;;;;4.20;1.27;;;;;;;19.13;58.02;98964.28;5069166;28;20175;-62
2022/01/04 02:58:46;;;;;;;4.70;1.63;;;;;;;19.12;58.00;98954.88;5068608;28;20255;-62
2022/01/04 03:01:11;;;;;;;4.03;1.60;;;;;;;19.10;57.83;98951.66;5068883;28;20152;-62
2022/01/04 03:03:37;;;;;;;3.40;1.30;;;;;;;19.11;57.58;98956.13;5068495;28;20179;-62
2022/01/04 03:06:02;;;;;;;3.83;1.37;;;;;;;19.10;57.90;98940.19;5069595;28;20696;-62
2022/01/04 03:08:27;;;;;;;5.53;1.40;;;;;;;19.10;58.01;98930.78;5069302;28;20166;-62
2022/01/04 03:10:53;;;;;;;7.73;1.60;;;;;;;19.10;57.88;98928.75;5069177;28;20171;-62
2022/01/04 03:13:18;;;;;;;4.67;1.33;;;;;;;19.12;57.54;98922.63;5068685;28;20182;-62
2022/01/04 03:15:44;;;;;;;3.03;1.20;;;;;;;19.11;57.80;98912.41;5068350;28;20533;-62
2022/01/04 03:18:10;;;;;;;4.70;1.80;;;;;;;19.09;57.80;98909.97;5068167;28;20183;-62
2022/01/04 03:20:35;;;;;;;2.70;1.23;;;;;;;19.10;57.87;98911.59;5069056;28;20425;-62
2022/01/04 03:23:01;;;;;;;3.27;1.30;;;;;;;19.09;57.74;98891.97;5068791;28;20669;-62
2022/01/04 03:25:26;;;;;;;5.87;1.73;;;;;;;19.10;57.78;98894.44;5069026;28;20183;-62
2022/01/04 03:27:52;;;;;;;7.00;1.57;;;;;;;19.08;57.69;98884.63;5068600;28;20175;-62
2022/01/04 03:30:17;;;;;;;3.80;1.67;;;;;;;19.08;58.30;98888.31;5068775;28;20529;-62
2022/01/04 03:32:42;;;;;;;3.60;1.43;;;;;;;19.10;57.92;98882.16;5076393;28;20551;-62
2022/01/04 03:35:08;;;;;;;4.60;1.50;;;;;;;19.08;57.87;98884.63;5089009;28;20170;-62
2022/01/04 03:37:33;;;;;;;4.87;1.30;;;;;;;19.07;57.69;98872.38;5087938;28;20675;-62
2022/01/04 03:39:59;;;;;;;2.70;1.23;;;;;;;19.09;57.87;98875.66;5089029;28;20162;-61
2022/01/04 03:42:24;;;;;;;7.57;1.90;;;;;;;19.10;57.49;98862.97;5088811;28;20171;-61
2022/01/04 03:44:50;;;;;;;4.00;1.40;;;;;;;19.08;57.73;98867.47;5068154;28;20181;-61
2022/01/04 03:47:15;;;;;;;3.13;1.30;;;;;;;19.07;57.70;98860.13;5084862;28;20170;-61
2022/01/04 03:49:40;;;;;;;3.20;1.40;;;;;;;19.09;57.62;98864.22;5087478;28;20171;-61
2022/01/04 03:52:06;;;;;;;3.10;1.33;;;;;;;19.06;57.71;98853.59;5088229;28;20198;-61
2022/01/04 03:54:32;;;;;;;4.80;1.47;;;;;;;19.07;57.63;98855.22;5070633;28;20193;-61
2022/01/04 03:56:57;;;;;;;2.70;1.27;;;;;;;19.06;57.73;98842.16;5082552;28;20611;-61
2022/01/04 03:59:22;;;;;;;3.50;1.30;;;;;;;19.05;57.92;98840.53;5082337;28;20222;-61
2022/01/04 04:01:48;;;;;;;3.00;1.23;;;;;;;19.05;57.88;98834.81;5087870;28;20163;-61
2022/01/04 04:04:13;;;;;;;2.70;1.30;;;;;;;19.08;58.02;98828.25;5088963;28;20755;-61
2022/01/04 04:06:39;;;;;;;3.27;1.47;;;;;;;19.07;58.03;98825.81;5088512;28;20198;-61
2022/01/04 04:09:05;;;;;;;4.00;1.40;;;;;;;19.07;57.78;98820.88;5088206;28;20175;-61
2022/01/04 04:11:30;;;;;;;3.30;1.40;;;;;;;19.06;57.71;98824.97;5088390;28;20612;-62
2022/01/04 04:13:55;;;;;;;3.27;1.40;;;;;;;19.05;57.65;98811.09;5088731;28;20224;-62
2022/01/04 04:16:21;;;;;;;4.27;1.30;;;;;;;19.07;58.43;98809.44;5088742;28;20254;-62
2022/01/04 04:18:46;;;;;;;3.17;1.20;;;;;;;19.05;57.89;98808.25;5069203;28;20513;-62
2022/01/04 04:21:12;;;;;;;5.50;1.53;;;;;;;19.05;57.76;98808.25;5068178;28;20199;-61
2022/01/04 04:23:37;;;;;;;2.80;1.27;;;;;;;19.05;57.68;98802.53;5068309;28;20178;-62
2022/01/04 04:26:04;;;;;;;3.83;1.43;;;;;;;19.05;57.61;98800.47;5068024;28;20175;-61
2022/01/04 04:28:29;;;;;;;2.80;1.30;;;;;;;19.09;57.28;98786.97;5067464;28;20179;-61
2022/01/04 04:30:56;;;;;;;3.13;1.47;;;;;;;19.07;57.46;98783.69;5067831;28;20409;-61
2022/01/04 04:33:22;;;;;;;3.90;1.40;;;;;;;19.04;57.57;98775.97;5068443;28;20653;-61
2022/01/04 04:35:47;;;;;;;3.60;1.80;;;;;;;19.04;57.82;98775.16;5050013;28;20417;-61
2022/01/04 04:38:12;;;;;;;3.63;1.40;;;;;;;19.05;57.84;98768.19;5067756;28;20417;-61
2022/01/04 04:40:38;;;;;;;2.37;1.20;;;;;;;19.03;57.75;98748.63;5068173;28;20179;-61
2022/01/04 04:43:03;;;;;;;2.10;1.03;;;;;;;19.06;57.49;98756.34;5067926;28;20179;-61
2022/01/04 04:45:29;;;;;;;3.10;1.33;;;;;;;19.04;57.63;98753.09;5067909;28;20559;-61
2022/01/04 04:47:54;;;;;;;2.90;1.20;;;;;;;19.04;57.86;98735.09;5068455;28;20588;-61
2022/01/04 04:50:20;;;;;;;4.27;1.50;;;;;;;19.05;57.65;98734.69;5071576;28;20179;-61
2022/01/04 04:52:45;;;;;;;3.30;1.37;;;;;;;19.06;57.54;98721.22;5052806;28;20187;-61
2022/01/04 04:55:11;;;;;;;3.00;1.30;;;;;;;19.03;57.92;98722.06;5064211;28;20182;-61
2022/01/04 04:57:37;;;;;;;3.40;1.00;;;;;;;19.03;57.62;98717.16;5053588;28;20298;-61
2022/01/04 05:00:03;;;;;;;2.20;1.00;;;;;;;19.04;57.83;98710.19;5054220;28;20230;-61
2022/01/04 05:02:29;;;;;;;3.90;1.20;;;;;;;19.03;57.59;98705.72;5071162;28;20459;-61
2022/01/04 05:04:54;;;;;;;2.60;1.00;;;;;;;19.03;58.00;98702.03;5071940;28;20434;-61
2022/01/04 05:07:20;;;;;;;3.23;1.33;;;;;;;19.05;58.04;98703.22;5070498;28;20206;-61
2022/01/04 05:09:45;;;;;;;3.33;1.30;;;;;;;19.04;57.50;98693.03;5051721;28;20175;-61
2022/01/04 05:12:11;;;;;;;2.70;1.10;;;;;;;19.05;57.56;98688.09;5071295;28;20276;-61
2022/01/04 05:14:37;;;;;;;2.90;1.17;;;;;;;19.04;57.76;98678.72;5071603;28;20179;-61
2022/01/04 05:17:03;;;;;;;3.20;1.17;;;;;;;19.04;57.52;98678.72;5071995;28;20209;-61
2022/01/04 05:19:28;;;;;;;3.27;0.83;;;;;;;19.02;57.67;98681.19;5090749;28;20473;-61
2022/01/04 05:21:54;;;;;;;4.13;1.30;;;;;;;19.05;57.57;98674.63;5090639;28;20177;-61
2022/01/04 05:24:19;;;;;;;2.50;1.20;;;;;;;19.04;57.82;98677.91;5091892;28;20173;-61
2022/01/04 05:26:45;;;;;;;3.90;1.23;;;;;;;19.04;57.62;98658.72;5090553;28;20182;-61
2022/01/04 05:29:10;;;;;;;3.13;1.17;;;;;;;19.02;57.58;98651.78;5091248;28;20166;-61
2022/01/04 05:31:36;;;;;;;2.90;1.23;;;;;;;19.04;57.30;98653.00;5091658;28;20241;-61
2022/01/04 05:34:01;;;;;;;2.70;1.10;;;;;;;19.04;57.63;98647.28;5070622;28;20179;-61
2022/01/04 05:36:27;;;;;;;2.23;1.10;;;;;;;19.02;57.76;98641.16;5071634;28;20193;-61
2022/01/04 05:38:52;;;;;;;2.20;1.20;;;;;;;19.04;57.46;98637.88;5066117;28;20183;-62
2022/01/04 05:41:17;;;;;;;2.87;1.27;;;;;;;19.07;57.65;98634.16;5050820;28;20168;-62
2022/01/04 05:43:43;;;;;;;4.23;1.10;;;;;;;19.01;57.67;98625.22;5050278;28;20167;-62
2022/01/04 05:46:08;;;;;;;2.30;1.20;;;;;;;19.02;57.88;98623.97;5050877;28;20576;-62
2022/01/04 05:48:34;;;;;;;3.30;1.50;;;;;;;19.04;57.93;98618.66;5050118;28;20179;-62
2022/01/04 05:50:59;;;;;;;2.23;1.13;;;;;;;19.04;57.63;98604.38;5049556;28;20180;-62
2022/01/04 05:53:25;;;;;;;1.97;1.07;;;;;;;19.04;57.55;98592.94;5054495;28;20183;-62
2022/01/04 05:55:50;;;;;;;2.90;1.30;;;;;;;19.03;57.70;98597.03;5050903;28;20180;-62
2022/01/04 05:58:16;;;;;;;3.00;1.10;;;;;;;19.04;57.39;98592.94;5055607;28;20178;-62
2022/01/04 06:00:41;;;;;;;2.40;1.10;;;;;;;19.03;57.54;98579.88;5068421;28;20226;-62
2022/01/04 06:03:07;;;;;;;2.90;1.30;;;;;;;19.02;57.67;98578.22;5070488;28;20179;-62
2022/01/04 06:05:32;;;;;;;2.17;1.10;;;;;;;19.03;57.61;98573.31;5070172;28;20567;-62
2022/01/04 06:07:57;;;;;;;2.20;1.00;;;;;;;19.04;57.63;98575.78;5069600;28;20657;-62
2022/01/04 06:10:23;;;;;;;2.97;1.20;;;;;;;19.02;57.70;98569.66;5070192;28;20221;-62
2022/01/04 06:15:15;;;;;;;3.70;1.40;;;;;;;19.03;57.53;98577.00;5069664;28;20559;-62
2022/01/04 06:17:42;;;;;;;3.10;1.20;;;;;;;19.05;57.38;98574.53;5069706;28;20197;-62
2022/01/04 06:20:11;;;;;;;3.30;1.10;;;;;;;19.03;58.03;98568.44;5070404;28;20768;-62
2022/01/04 06:22:37;;;;;;;2.63;1.30;;;;;;;19.04;57.95;98554.91;5069818;28;20409;-62
2022/01/04 06:25:03;;;;;;;4.17;1.10;;;;;;;19.04;57.35;98572.09;5070172;28;20410;-62
2022/01/04 06:27:29;;;;;;;2.10;1.03;;;;;;;19.02;57.60;98563.94;5051730;28;20532;-62
2022/01/04 06:29:54;;;;;;;3.40;1.17;;;;;;;19.03;57.37;98551.28;5069959;28;20433;-62
2022/01/04 06:32:19;;;;;;;2.07;1.00;;;;;;;19.02;57.51;98543.91;5069652;28;20194;-62
2022/01/04 06:34:45;;;;;;;2.10;1.10;;;;;;;19.05;57.72;98550.81;5070053;28;20228;-62
2022/01/04 06:37:11;;;;;;;3.10;1.13;;;;;;;19.02;57.91;98543.91;5069486;28;20217;-62
2022/01/04 06:39:36;;;;;;;3.30;1.23;;;;;;;19.03;57.36;98542.69;5069495;28;20179;-62
2022/01/04 06:42:02;;;;;;;3.53;1.40;;;;;;;19.03;57.66;98534.09;5050260;28;20445;-62
2022/01/04 06:44:27;;;;;;;3.60;1.30;;;;;;;19.03;57.50;98530.44;5069961;28;20191;-62
2022/01/04 06:46:53;;;;;;;2.03;1.20;;;;;;;19.04;57.53;98527.16;5067398;28;20265;-62
2022/01/04 06:49:19;;;;;;;2.20;1.03;;;;;;;19.04;57.64;98534.91;5059925;28;20571;-62
2022/01/04 06:51:45;;;;;;;3.20;1.20;;;;;;;19.03;57.57;98524.72;5067329;28;20192;-62
2022/01/04 06:54:11;;;;;;;2.80;1.30;;;;;;;19.04;57.61;98518.56;5047632;28;20199;-62
2022/01/04 06:56:36;;;;;;;1.60;0.60;;;;;;;19.02;57.47;98506.72;5049172;28;20490;-62
2022/01/04 06:59:03;;;;;;;1.90;1.10;;;;;;;19.03;57.58;98505.50;5048860;28;20469;-62
2022/01/04 07:01:28;;;;;;;3.67;1.37;;;;;;;19.04;57.63;98509.97;5049337;28;20715;-62
2022/01/04 07:03:53;;;;;;;2.10;1.03;;;;;;;19.02;57.49;98501.00;5049796;28;20418;-63
2022/01/04 07:06:19;;;;;;;2.27;0.90;;;;;;;19.02;57.91;98503.06;5049250;28;20202;-62
2022/01/04 07:08:44;;;;;;;3.83;1.00;;;;;;;19.04;57.55;98498.53;5048720;28;20172;-62
2022/01/04 07:11:10;;;;;;;3.10;1.10;;;;;;;19.06;57.39;98503.84;5048828;28;20714;-62
2022/01/04 07:13:35;;;;;;;2.50;1.10;;;;;;;19.09;57.16;98486.63;5049240;28;20674;-62
2022/01/04 07:16:01;;;;;;;3.80;1.20;;;;;;;19.06;57.61;98486.69;5049140;28;20249;-62
2022/01/04 07:18:26;;;;;;;3.20;1.20;;;;;;;19.03;57.47;98488.34;5059827;28;20544;-62
2022/01/04 07:20:52;;;;;;;2.63;1.23;;;;;;;19.03;57.38;98485.50;5060818;28;20525;-62
2022/01/04 07:23:17;;;;;;;2.50;1.27;;;;;;;19.05;57.40;98485.84;5068619;28;20179;-62
2022/01/04 07:25:42;;;;;;;1.80;0.90;;;;;;;19.04;57.67;98478.53;5069011;28;20186;-62
2022/01/04 07:28:08;;;;;;;2.37;1.13;;;;;;;19.06;57.61;98470.31;5067858;28;20167;-63
2022/01/04 07:30:33;;;;;;;2.50;0.90;;;;;;;19.02;57.59;98478.13;5051213;28;20190;-62
2022/01/04 07:32:59;;;;;;;2.30;1.00;;;;;;;19.04;57.63;98489.97;5068307;28;20312;-62
2022/01/04 07:35:24;;;;;;;2.13;0.80;;;;;;;19.06;57.30;98476.03;5069152;28;20598;-62
2022/01/04 07:37:50;;;;;;;2.70;1.03;;;;;;;19.06;57.32;98489.53;5067998;28;20182;-62
2022/01/04 07:40:15;;;;;;;2.37;0.90;;;;;;;19.04;57.52;98477.69;5050783;28;20182;-62
2022/01/04 07:42:41;;;;;;;2.00;0.93;;;;;;;19.06;57.49;98484.63;5068996;28;20167;-62
2022/01/04 07:45:07;;;;;;;2.23;0.97;;;;;;;19.04;57.22;98484.25;5068766;28;20175;-62
2022/01/04 07:47:32;;;;;;;2.10;1.10;;;;;;;19.06;57.54;98478.09;5068725;28;20214;-62
2022/01/04 07:49:57;;;;;;;2.10;0.90;;;;;;;19.06;57.32;98490.34;5070604;28;20186;-62
2022/01/04 07:52:23;;;;;;;2.23;0.90;;;;;;;19.03;57.65;98471.19;5084503;28;20555;-62
2022/01/04 07:54:48;;;;;;;2.77;1.40;;;;;;;19.07;57.28;98474.00;5088284;28;20226;-62
2022/01/04 07:57:14;;;;;;;3.10;1.20;;;;;;;19.07;57.38;98471.13;5088858;28;20667;-62
2022/01/04 07:59:39;;;;;;;2.10;1.10;;;;;;;19.04;57.49;98474.84;5088318;28;20222;-62
2022/01/04 08:02:05;;;;;;;2.00;0.97;;;;;;;19.06;57.48;98478.91;5088972;28;20167;-62
2022/01/04 08:04:30;;;;;;;3.63;0.90;;;;;;;19.09;57.36;98477.22;5089020;28;20259;-62
2022/01/04 08:06:56;;;;;;;2.10;1.00;;;;;;;19.07;57.39;98480.50;5081282;28;20202;-62
2022/01/04 08:09:21;;;;;;;2.80;1.00;;;;;;;19.07;57.26;98483.38;5088333;28;20189;-62
2022/01/04 08:11:47;;;;;;;2.03;0.93;;;;;;;19.04;57.45;98467.09;5088810;28;20206;-62
2022/01/04 08:14:13;;;;;;;2.60;1.30;;;;;;;19.04;57.53;98461.38;5088452;28;20546;-62
2022/01/04 08:16:39;;;;;;;2.33;1.27;;;;;;;19.05;57.48;98456.44;5088846;28;20672;-62
2022/01/04 08:19:04;;;;;;;2.27;1.00;;;;;;;19.04;57.22;98458.50;5080829;28;20417;-62
2022/01/04 08:21:30;;;;;;;2.73;1.00;;;;;;;19.07;57.36;98457.63;5072347;28;20218;-62
2022/01/04 08:23:55;;;;;;;1.77;0.97;;;;;;;19.05;57.54;98434.38;5052799;28;20194;-62
2022/01/04 08:26:21;;;;;;;1.93;1.00;;;;;;;19.05;57.64;98440.09;5072218;28;20639;-62
2022/01/04 08:28:46;;;;;;;2.67;1.37;;;;;;;19.05;57.44;98442.13;5072314;28;20700;-62
2022/01/04 08:31:12;;;;;;;2.73;1.00;;;;;;;19.06;57.64;98432.34;5071784;28;20248;-62
2022/01/04 08:33:37;;;;;;;2.67;1.43;;;;;;;19.07;57.26;98440.47;5072183;28;20183;-62
2022/01/04 08:36:04;;;;;;;1.97;0.93;;;;;;;19.09;57.33;98438.00;5072027;28;20175;-62
2022/01/04 08:38:29;;;;;;;3.70;1.40;;;;;;;19.07;57.40;98443.31;5071467;28;20202;-62
2022/01/04 08:40:54;;;;;;;3.17;0.90;;;;;;;19.06;57.35;98432.34;5072234;28;20429;-62
2022/01/04 08:43:20;;;;;;;2.03;0.90;;;;;;;19.07;57.20;98426.16;5071959;28;20171;-62
2022/01/04 08:45:46;;;;;;;2.27;1.07;;;;;;;19.07;57.22;98436.81;5051856;28;20237;-62
2022/01/04 08:48:11;;;;;;;2.20;0.80;;;;;;;19.07;57.32;98428.22;5070395;28;20644;-62
2022/01/04 08:50:36;;;;;;;2.57;0.90;;;;;;;19.07;57.36;98414.72;5071378;28;20183;-62
2022/01/04 08:53:02;;;;;;;2.27;0.97;;;;;;;19.07;57.39;98423.31;5072165;28;20581;-62
2022/01/04 08:55:28;;;;;;;1.77;1.00;;;;;;;19.07;57.63;98413.94;5071168;28;20186;-62
2022/01/04 08:57:53;;;;;;;2.20;1.03;;;;;;;19.07;57.16;98400.44;5070983;28;20639;-62
2022/01/04 09:00:19;;;;;;;1.83;0.97;;;;;;;19.07;57.72;98397.56;5071073;28;20227;-62
2022/01/04 09:02:44;;;;;;;2.10;0.83;;;;;;;19.06;57.40;98404.53;5071647;28;20471;-62
2022/01/04 09:05:10;;;;;;;3.67;1.20;;;;;;;19.06;57.35;98410.25;5071664;28;20244;-62
2022/01/04 09:07:36;;;;;;;2.57;0.97;;;;;;;19.07;57.20;98399.63;5053000;28;20191;-61
2022/01/04 09:10:03;;;;;;;1.80;0.90;;;;;;;19.09;57.43;98408.59;5053568;28;20472;-62
2022/01/04 09:12:44;;;;;;;2.37;0.97;;;;;;;19.08;57.37;98393.50;5071092;28;20241;-62
2022/01/04 09:20:38;;;;;;;3.57;0.83;;;;;;;19.08;57.27;98418.41;5091982;28;20424;-62
2022/01/04 09:23:03;;;;;;;2.27;1.07;;;;;;;19.06;57.23;98404.53;5073010;28;20404;-62
2022/01/04 09:25:28;;;;;;;2.60;1.00;;;;;;;19.06;57.35;98410.25;5091792;28;20243;-62
2022/01/04 09:27:54;;;;;;;3.27;1.07;;;;;;;19.07;57.49;98416.78;5091022;28;20235;-62
2022/01/04 09:30:19;;;;;;;2.27;1.03;;;;;;;19.09;57.32;98428.59;5091052;28;20181;-62
2022/01/04 09:32:45;;;;;;;2.00;1.20;;;;;;;19.09;57.17;98422.88;5072138;28;20262;-62
2022/01/04 09:35:12;;;;;;;2.60;1.10;;;;;;;19.08;57.29;98427.81;5030972;28;20273;-62
2022/01/04 09:37:38;;;;;;;2.10;1.00;;;;;;;19.09;57.21;98415.13;5050366;28;20191;-62
2022/01/04 09:40:04;;;;;;;1.50;0.70;;;;;;;19.10;57.12;98418.78;5051456;28;20418;-62
2022/01/04 09:42:30;;;;;;;2.10;1.00;;;;;;;19.08;57.48;98409.81;5050322;28;20198;-62
2022/01/04 09:44:55;;;;;;;2.50;0.80;;;;;;;19.06;57.54;98413.09;5033379;28;20179;-62
2022/01/04 09:47:21;;;;;;;2.60;1.27;;;;;;;19.07;57.66;98402.50;5050409;28;20429;-62
2022/01/04 09:49:46;;;;;;;2.43;1.10;;;;;;;19.08;57.10;98402.06;5060032;28;20163;-62
2022/01/04 09:52:15;;;;;;;2.50;1.03;;;;;;;19.08;57.30;98392.66;5070735;28;20237;-62
2022/01/04 09:54:40;;;;;;;3.30;1.10;;;;;;;19.11;57.14;98392.59;5036181;28;20183;-62
2022/01/04 09:57:06;;;;;;;1.87;0.73;;;;;;;19.09;57.16;98389.38;5045428;28;20486;-62
2022/01/04 09:59:31;;;;;;;2.77;1.30;;;;;;;19.05;57.48;98388.63;5070267;28;20811;-62
2022/01/04 10:02:02;;;;;;;2.30;1.00;;;;;;;19.05;57.22;98380.03;5070332;28;20783;-62
2022/01/04 10:04:27;;;;;;;1.67;1.10;;;;;;;19.07;57.49;98374.69;5037460;28;20194;-62
2022/01/04 10:06:58;;;;;;;2.03;1.10;;;;;;;19.06;57.34;98373.06;5070200;28;20433;-62
2022/01/04 10:09:34;;;;;;;1.67;0.80;;;;;;;19.07;57.20;98379.63;5070441;28;20170;-62
2022/01/04 10:11:59;;;;;;;2.10;1.10;;;;;;;19.09;57.09;98388.56;5069247;28;20460;-62
2022/01/04 10:14:33;;;;;;;1.97;1.00;;;;;;;19.10;57.17;98378.72;5070033;28;20418;-63
2022/01/04 10:17:07;;;;;;;2.40;1.03;;;;;;;19.09;57.41;98380.81;5066827;28;20167;-62
2022/01/04 10:19:39;;;;;;;2.03;0.93;;;;;;;19.07;57.34;98386.13;5070310;28;20467;-62
2022/01/04 10:22:37;;;;;;;2.07;0.90;;;;;;;19.08;57.21;98381.22;5070198;28;20409;-62
2022/01/04 10:25:03;;;;;;;2.00;0.90;;;;;;;19.06;57.19;98370.22;5014809;28;20878;-62
2022/01/04 10:27:35;;;;;;;1.50;0.60;;;;;;;19.07;57.15;98386.13;5068751;28;20492;-62
2022/01/04 10:30:20;;;;;;;1.50;0.70;;;;;;;19.06;57.26;98367.34;5069918;28;20179;-62
2022/01/04 10:33:05;;;;;;;1.70;0.80;;;;;;;19.10;57.16;98373.00;5068987;28;20449;-62
2022/01/04 10:35:43;;;;;;;1.60;0.80;;;;;;;19.08;57.24;98370.59;5070296;28;20412;-62
2022/01/04 10:38:15;;;;;;;2.20;1.00;;;;;;;19.09;57.32;98372.22;5069218;28;20409;-62
2022/01/04 10:40:48;;;;;;;2.10;0.90;;;;;;;19.09;57.08;98380.81;5070108;28;20429;-62
2022/01/04 10:43:17;;;;;;;2.10;1.07;;;;;;;19.07;57.33;98374.69;5069596;28;20409;-62
2022/01/04 10:45:42;;;;;;;1.80;0.90;;;;;;;19.06;57.33;98361.63;5068645;28;20413;-62
2022/01/04 10:48:18;;;;;;;2.63;1.00;;;;;;;19.08;57.37;98376.31;5068020;28;20420;-62
2022/01/04 10:50:56;;;;;;;2.10;0.80;;;;;;;19.10;56.94;98353.81;5069960;28;20238;-62
2022/01/04 10:53:22;;;;;;;2.03;0.93;;;;;;;19.10;57.16;98353.81;5068816;28;20447;-62
2022/01/04 10:55:50;;;;;;;1.90;0.80;;;;;;;19.13;57.24;98360.72;5069344;28;20518;-62
2022/01/04 10:58:20;;;;;;;3.50;1.27;;;;;;;19.08;57.29;98352.63;5069244;28;20410;-63
2022/01/04 11:01:01;;;;;;;1.60;0.70;;;;;;;19.09;57.19;98360.78;5065244;28;21019;-62
2022/01/04 11:03:31;;;;;;;2.00;0.83;;;;;;;19.09;57.23;98355.06;5069093;28;20477;-62
2022/01/04 11:05:58;;;;;;;1.60;0.90;;;;;;;19.07;57.26;98362.44;5068408;28;20436;-62
2022/01/04 11:08:24;;;;;;;1.80;0.90;;;;;;;19.07;57.05;98348.16;5068690;28;20425;-62
2022/01/04 11:10:50;;;;;;;2.60;1.00;;;;;;;19.07;57.22;98343.22;5068937;28;20421;-62
2022/01/04 11:13:15;;;;;;;1.90;0.90;;;;;;;19.06;57.27;98346.53;5051347;28;20198;-62
2022/01/04 11:15:41;;;;;;;1.80;0.80;;;;;;;19.08;57.19;98344.88;5069005;28;20421;-62
2022/01/04 11:18:07;;;;;;;2.30;0.90;;;;;;;19.08;57.24;98342.00;5041687;28;20253;-62
2022/01/04 11:20:32;;;;;;;2.63;1.17;;;;;;;19.08;57.31;98336.28;5031651;28;20224;-62
2022/01/04 11:22:58;;;;;;;2.80;0.90;;;;;;;19.08;57.30;98339.16;5013212;28;20990;-62
2022/01/04 11:25:24;;;;;;;1.50;0.70;;;;;;;19.08;57.44;98336.28;5049555;28;20669;-62
2022/01/04 11:27:50;;;;;;;1.87;0.93;;;;;;;19.08;57.24;98339.16;5030241;28;20639;-62
2022/01/04 11:30:25;;;;;;;1.50;0.80;;;;;;;19.09;57.18;98331.34;5031160;28;20179;-62
2022/01/04 11:32:54;;;;;;;2.30;1.10;;;;;;;19.10;57.27;98330.94;5037331;28;20226;-62
2022/01/04 11:35:20;;;;;;;4.57;1.50;;;;;;;19.09;56.90;98329.31;5028898;28;20889;-62
2022/01/04 11:37:52;;;;;;;2.80;0.97;;;;;;;19.11;57.23;98335.41;5028859;28;20450;-62
2022/01/04 11:40:34;;;;;;;2.83;0.90;;;;;;;19.10;57.50;98345.22;5028728;28;20415;-62